DW6030 Weather Reports


Display with metric or nautical units.
time (UTC)temp
F
wind
direction
speed
MPH
gust
MPH
rain 1hr
in
rain 24hr
in
rain mn
in
humidity
%
barometer
mb
20200409053532 56 226 5.0 21.0 0.02 0.06 0.06 88 1010.3
20200409053030 56 224 5.0 12.0 0.02 0.06 0.06 88 1010.4
20200409052531 56 229 5.0 14.0 0.02 0.06 0.06 89 1010.3
20200409052032 56 229 6.0 13.0 0.02 0.06 0.06 90 1010.3
20200409051530 56 229 5.0 12.0 0.02 0.06 0.06 91 1010.4
20200409051035 56 234 5.0 15.0 0.02 0.06 0.06 92 1010.5
20200409050530 57 218 9.0 16.0 0.02 0.06 0.06 91 1010.5
20200409050035 57 212 7.0 21.0 0.02 0.06 0.06 89 1010.5
20200409045530 59 233 18.0 28.0 0.02 0.06 0.06 82 1010.5
20200409045030 60 232 9.0 22.0 0.00 0.04 0.04 75 1010.2
20200409044530 60 219 9.0 21.0 0.00 0.04 0.04 75 1010.2
20200409044030 60 230 12.0 21.0 0.00 0.04 0.04 75 1010.3
20200409043529 60 228 9.0 21.0 0.00 0.04 0.04 76 1010.4
20200409043030 60 219 14.0 23.0 0.00 0.04 0.04 76 1010.5
20200409042530 60 220 16.0 24.0 0.00 0.04 0.04 77 1010.4
20200409042030 61 225 23.0 29.0 0.00 0.04 0.04 74 1010.4
20200409041530 62 224 16.0 26.0 0.00 0.04 0.04 71 1010.3
20200409041033 61 234 7.0 17.0 0.00 0.04 0.04 74 1010.2
20200409040529 61 235 12.0 21.0 0.00 0.05 0.04 75 1010.3
20200409040029 60 241 11.0 23.0 0.00 0.05 0.04 80 1010.3
20200409035532 59 235 14.0 24.0 0.00 0.05 0.04 78 1010.3
20200409035031 60 213 12.0 28.0 0.00 0.05 0.04 78 1010.3
20200409033529 59 225 17.0 25.0 0.00 0.06 0.04 80 1010.3
20200409033030 60 222 20.0 32.0 0.00 0.06 0.04 77 1010.3
20200409032532 63 230 16.0 32.0 0.00 0.06 0.04 66 1010.2
20200409032033 63 221 9.0 24.0 0.00 0.06 0.04 64 1010.1
20200409031530 63 237 10.0 18.0 0.00 0.06 0.04 62 1010.1
20200409031031 64 233 10.0 17.0 0.00 0.06 0.04 61 1010.1
20200409030530 64 217 12.0 22.0 0.00 0.06 0.04 63 1010.1
20200409030032 63 228 17.0 28.0 0.00 0.06 0.04 69 1010.1
20200409025529 62 220 18.0 30.0 0.00 0.06 0.04 68 1010.2
20200409025034 62 229 11.0 18.0 0.00 0.06 0.04 69 1010.2
20200409024530 62 222 13.0 22.0 0.00 0.06 0.04 72 1010.4
20200409024031 61 227 20.0 28.0 0.00 0.06 0.04 73 1010.4
20200409023529 62 224 21.0 33.0 0.00 0.06 0.04 72 1010.3
20200409023036 64 227 12.0 28.0 0.00 0.06 0.04 67 1010.2
20200409022530 64 216 18.0 28.0 0.00 0.06 0.04 66 1010.3
20200409022032 64 230 10.0 20.0 0.00 0.06 0.04 69 1010.2
20200409021533 64 220 15.0 24.0 0.00 0.06 0.04 70 1010.2
20200409021030 63 220 10.0 26.0 0.00 0.09 0.04 71 1010.3
20200409020529 63 234 15.0 26.0 0.00 0.09 0.04 68 1010.3
20200409020032 65 237 17.0 31.0 0.00 0.09 0.04 63 1010.3
20200409015529 66 240 10.0 20.0 0.00 0.09 0.04 66 1010.3
20200409015031 65 226 13.0 22.0 0.00 0.09 0.04 68 1010.4
20200409014529 65 220 12.0 26.0 0.00 0.09 0.04 68 1010.4
20200409014032 64 209 10.0 22.0 0.00 0.09 0.04 70 1010.5
20200409013529 63 207 14.0 29.0 0.00 0.09 0.04 70 1010.6
20200409013031 64 230 12.0 21.0 0.00 0.09 0.04 69 1010.5
20200409012529 64 212 12.0 24.0 0.00 0.09 0.04 67 1010.5
20200409012030 64 218 16.0 28.0 0.00 0.09 0.04 67 1010.5
20200409011532 64 214 9.0 22.0 0.00 0.10 0.04 69 1010.5
20200409011031 63 222 9.0 23.0 0.00 0.11 0.04 72 1010.7
20200409010529 63 219 13.0 22.0 0.00 0.11 0.04 70 1010.8
20200409010030 63 228 16.0 22.0 0.00 0.11 0.04 70 1010.8
20200409005529 64 242 10.0 23.0 0.00 0.11 0.04 68 1010.9
20200409005031 64 233 14.0 28.0 0.00 0.11 0.04 68 1010.8
20200409004529 64 218 15.0 26.0 0.00 0.11 0.04 69 1011.0
20200409004032 63 234 15.0 29.0 0.00 0.11 0.04 70 1011.1
20200409003529 63 216 14.0 22.0 0.02 0.11 0.04 68 1011.1
20200409003031 63 221 14.0 22.0 0.02 0.11 0.04 70 1011.2
20200409002531 63 230 17.0 29.0 0.02 0.11 0.04 70 1011.2
20200409002029 63 227 12.0 24.0 0.02 0.11 0.04 75 1011.2
20200409001529 62 230 15.0 28.0 0.02 0.11 0.04 74 1011.3
20200409001031 62 226 14.0 25.0 0.02 0.11 0.04 80 1011.3
20200409000530 62 229 13.0 21.0 0.02 0.11 0.04 84 1011.3
20200409000032 62 232 6.0 20.0 0.02 0.11 0.04 88 1011.3
20200408235529 61 215 16.0 21.0 0.02 0.11 0.04 87 1011.3
20200408235033 61 225 11.0 20.0 0.04 0.11 0.04 91 1011.4
20200408234529 60 226 9.0 17.0 0.04 0.11 0.04 90 1011.5
20200408234033 62 227 10.0 20.0 0.04 0.11 0.04 83 1011.4
20200408233529 63 209 13.0 23.0 0.02 0.09 0.02 84 1011.3
20200408233034 62 222 11.0 26.0 0.02 0.09 0.02 85 1011.3
20200408232529 62 231 10.0 22.0 0.02 0.09 0.02 87 1011.3
20200408232031 62 240 7.0 15.0 0.02 0.09 0.02 90 1011.4
20200408231529 61 244 6.0 12.0 0.02 0.09 0.02 91 1011.4
20200408231032 61 233 6.0 12.0 0.02 0.09 0.02 91 1011.4
20200408230529 60 227 6.0 12.0 0.02 0.09 0.02 90 1011.5
20200408230030 61 231 7.0 21.0 0.02 0.09 0.02 85 1011.5
20200408225531 63 237 11.0 26.0 0.02 0.09 0.02 82 1011.5
20200408225031 65 237 10.0 21.0 0.00 0.07 0.00 76 1011.4
20200408224528 64 244 13.0 25.0 0.00 0.07 0.00 75 1011.3
20200408224032 64 243 10.0 23.0 0.00 0.07 0.00 73 1011.3
20200408223529 65 231 9.0 18.0 0.00 0.07 0.00 72 1011.4
20200408223029 65 240 9.0 18.0 0.00 0.07 0.00 71 1011.4
20200408222531 65 237 7.0 15.0 0.00 0.07 0.00 72 1011.4
20200408222028 65 227 9.0 17.0 0.00 0.07 0.00 77 1011.4
20200408221528 64 253 10.0 21.0 0.00 0.07 0.00 77 1011.4
20200408221031 63 247 9.0 20.0 0.00 0.07 0.00 78 1011.5
20200408220529 63 239 7.0 15.0 0.00 0.07 0.00 80 1011.5
20200408220029 63 239 7.0 16.0 0.00 0.07 0.00 79 1011.5
20200408215531 63 251 10.0 20.0 0.00 0.07 0.00 77 1011.6
20200408215028 64 235 8.0 18.0 0.00 0.07 0.00 74 1011.7
20200408214528 66 237 13.0 28.0 0.00 0.07 0.00 71 1011.5
20200408214030 65 246 10.0 25.0 0.00 0.07 0.00 69 1011.4
20200408213528 66 250 12.0 21.0 0.00 0.07 0.00 69 1011.4
20200408213028 65 219 8.0 18.0 0.00 0.07 0.00 71 1011.4
20200408212529 65 235 8.0 17.0 0.00 0.07 0.00 71 1011.5
20200408212031 65 241 12.0 25.0 0.00 0.07 0.00 70 1011.4
20200408211529 65 241 9.0 15.0 0.00 0.07 0.00 71 1011.4
20200408211029 64 243 10.0 20.0 0.00 0.07 0.00 74 1011.4
20200408210531 64 239 7.0 20.0 0.00 0.07 0.00 75 1011.5
20200408210030 63 244 11.0 20.0 0.00 0.07 0.00 75 1011.5
20200408205528 63 247 10.0 21.0 0.00 0.07 0.00 76 1011.6
20200408205030 63 245 7.0 17.0 0.00 0.07 0.00 75 1011.6
20200408204528 63 239 7.0 12.0 0.00 0.07 0.00 74 1011.5
20200408204029 62 231 9.0 20.0 0.00 0.07 0.00 74 1011.6
20200408203530 62 230 7.0 17.0 0.00 0.07 0.00 74 1011.5
20200408203028 62 212 6.0 12.0 0.00 0.07 0.00 76 1011.6
20200408202528 62 248 7.0 20.0 0.00 0.07 0.00 75 1011.6
20200408202029 62 205 9.0 13.0 0.00 0.07 0.00 75 1011.6
20200408201528 62 230 7.0 14.0 0.00 0.07 0.00 76 1011.6
20200408201028 61 189 7.0 14.0 0.00 0.07 0.00 76 1011.5
20200408200528 60 209 6.0 15.0 0.00 0.07 0.00 77 1011.6
20200408200028 60 230 4.0 12.0 0.00 0.07 0.00 77 1011.4
20200408195528 60 232 5.0 10.0 0.00 0.07 0.00 77 1011.4
20200408195028 60 230 3.0 8.0 0.00 0.07 0.00 77 1011.4
20200408194531 60 208 3.0 9.0 0.00 0.07 0.00 76 1011.5
20200408194028 60 232 5.0 10.0 0.00 0.07 0.00 76 1011.4
20200408193528 60 228 6.0 12.0 0.00 0.07 0.00 76 1011.4
20200408193031 60 231 5.0 9.0 0.00 0.07 0.00 76 1011.3
20200408192528 59 198 5.0 10.0 0.00 0.07 0.00 75 1011.3
20200408192028 59 179 5.0 8.0 0.00 0.07 0.00 76 1011.3
20200408191531 59 222 6.0 12.0 0.00 0.07 0.00 76 1011.4
20200408191028 59 216 7.0 10.0 0.00 0.07 0.00 75 1011.3
20200408190528 59 225 6.0 12.0 0.00 0.07 0.00 75 1011.2
20200408190031 59 238 6.0 12.0 0.00 0.07 0.00 74 1011.2
20200408185528 60 196 7.0 12.0 0.00 0.07 0.00 74 1011.2
20200408185029 60 183 8.0 14.0 0.00 0.07 0.00 73 1011.2
20200408184530 60 218 7.0 14.0 0.00 0.07 0.00 74 1011.3
20200408184027 60 201 7.0 15.0 0.00 0.07 0.00 73 1011.3
20200408183528 60 210 10.0 16.0 0.00 0.07 0.00 73 1011.2
20200408183029 59 201 8.0 15.0 0.00 0.07 0.00 74 1011.2
20200408182528 59 207 8.0 12.0 0.00 0.07 0.00 74 1011.2
20200408182028 59 224 6.0 15.0 0.00 0.07 0.00 75 1011.1
20200408181530 59 213 7.0 13.0 0.00 0.07 0.00 75 1011.1
20200408181028 59 227 8.0 12.0 0.00 0.07 0.00 75 1011.1
20200408180528 60 220 7.0 14.0 0.00 0.07 0.00 76 1011.1
20200408180028 60 225 9.0 13.0 0.00 0.07 0.00 78 1011.1
20200408175527 60 218 7.0 13.0 0.00 0.07 0.00 81 1011.1
20200408175028 60 219 6.0 12.0 0.00 0.07 0.00 84 1011.2
20200408174530 60 209 6.0 12.0 0.00 0.07 0.00 84 1011.2
20200408174027 59 240 6.0 10.0 0.00 0.07 0.00 83 1011.1
20200408173528 59 238 5.0 12.0 0.00 0.07 0.00 81 1011.1
20200408173029 60 242 6.0 14.0 0.00 0.07 0.00 80 1011.1
20200408172527 59 229 7.0 14.0 0.00 0.07 0.00 80 1011.0
20200408172028 59 231 7.0 14.0 0.00 0.07 0.00 80 1010.9
20200408171530 59 230 8.0 14.0 0.00 0.07 0.00 80 1010.9
20200408171028 59 224 6.0 12.0 0.00 0.07 0.00 81 1010.9
20200408170527 59 238 7.0 16.0 0.00 0.07 0.00 79 1010.9
20200408170027 59 231 5.0 12.0 0.00 0.07 0.00 76 1010.8
20200408165528 59 233 6.0 12.0 0.00 0.07 0.00 77 1010.7
20200408165027 59 229 5.0 12.0 0.00 0.07 0.00 78 1010.7
20200408164528 59 225 6.0 12.0 0.00 0.07 0.00 78 1010.8
20200408164028 59 230 6.0 13.0 0.00 0.07 0.00 80 1010.7
20200408163527 59 228 6.0 10.0 0.00 0.07 0.00 83 1010.7
20200408163027 59 232 5.0 12.0 0.00 0.07 0.00 83 1010.7
20200408162533 59 229 5.0 10.0 0.00 0.07 0.00 83 1010.6
20200408162028 59 233 5.0 9.0 0.00 0.07 0.00 83 1010.7
20200408161527 58 225 6.0 13.0 0.00 0.07 0.00 83 1010.6
20200408161030 59 235 6.0 12.0 0.00 0.07 0.00 83 1010.6
20200408160527 59 228 7.0 15.0 0.00 0.07 0.00 82 1010.6
20200408160027 59 210 7.0 16.0 0.00 0.07 0.00 80 1010.6
20200408155527 59 225 5.0 10.0 0.00 0.07 0.00 78 1010.6
20200408155027 59 237 6.0 9.0 0.00 0.07 0.00 77 1010.7
20200408154528 59 229 7.0 12.0 0.00 0.07 0.00 77 1010.6
20200408154030 59 239 6.0 12.0 0.00 0.07 0.00 76 1010.7
20200408153528 59 225 6.0 10.0 0.00 0.07 0.00 76 1010.8
20200408153028 59 228 6.0 14.0 0.00 0.07 0.00 76 1010.8
20200408152530 59 229 6.0 12.0 0.00 0.07 0.00 77 1010.8
20200408152028 59 235 7.0 16.0 0.00 0.07 0.00 78 1010.9
20200408151527 59 222 6.0 14.0 0.00 0.07 0.00 79 1010.8
20200408151029 59 220 8.0 16.0 0.00 0.07 0.00 78 1010.9
20200408150527 59 225 8.0 16.0 0.00 0.07 0.00 78 1010.8
20200408150027 59 214 10.0 18.0 0.00 0.07 0.00 79 1010.9
20200408145529 58 237 10.0 16.0 0.00 0.07 0.00 79 1011.0
20200408145027 59 242 8.0 15.0 0.00 0.07 0.00 78 1011.0
20200408144527 58 223 9.0 14.0 0.00 0.07 0.00 79 1011.0
20200408144028 59 234 6.0 13.0 0.00 0.07 0.00 79 1011.1
20200408143527 59 224 7.0 16.0 0.00 0.07 0.00 79 1011.2
20200408143027 59 226 8.0 14.0 0.00 0.07 0.00 79 1011.2
20200408142529 60 219 14.0 26.0 0.00 0.07 0.00 78 1011.3
20200408142027 60 238 7.0 15.0 0.00 0.07 0.00 72 1011.3
20200408141527 60 206 9.0 13.0 0.00 0.07 0.00 71 1011.3
20200408141029 60 231 6.0 14.0 0.00 0.07 0.00 70 1011.3
20200408140527 60 210 10.0 14.0 0.00 0.07 0.00 69 1011.4
20200408140026 60 198 11.0 17.0 0.00 0.07 0.00 68 1011.5
20200408135529 60 182 9.0 18.0 0.00 0.07 0.00 69 1011.5
20200408135027 60 225 9.0 15.0 0.00 0.07 0.00 69 1011.5
20200408134527 60 202 7.0 12.0 0.00 0.07 0.00 71 1011.6
20200408134029 60 215 7.0 13.0 0.00 0.07 0.00 71 1011.5
20200408133527 60 194 6.0 12.0 0.00 0.07 0.00 72 1011.6
20200408133028 60 207 8.0 16.0 0.00 0.07 0.00 71 1011.6
20200408132530 60 216 6.0 13.0 0.00 0.07 0.00 71 1011.6
20200408132027 60 225 6.0 13.0 0.00 0.07 0.00 72 1011.6
20200408131527 60 242 7.0 15.0 0.00 0.07 0.00 73 1011.6
20200408131029 60 231 8.0 14.0 0.00 0.07 0.00 72 1011.6
20200408130527 60 211 8.0 16.0 0.00 0.07 0.00 73 1011.7
20200408130026 60 229 8.0 16.0 0.00 0.07 0.00 74 1011.7
20200408125529 60 208 10.0 16.0 0.00 0.07 0.00 74 1011.8
20200408125027 60 184 7.0 13.0 0.00 0.07 0.00 75 1011.8
20200408124527 60 189 9.0 16.0 0.00 0.07 0.00 75 1011.8
20200408124029 60 216 13.0 20.0 0.00 0.07 0.00 73 1011.7
20200408123527 60 214 7.0 16.0 0.00 0.07 0.00 70 1011.7
20200408123026 60 237 8.0 17.0 0.00 0.07 0.00 68 1011.7
20200408122529 60 214 8.0 12.0 0.00 0.07 0.00 67 1011.7
20200408122026 61 196 7.0 13.0 0.00 0.07 0.00 66 1011.7
20200408121527 61 218 10.0 20.0 0.00 0.07 0.00 66 1011.7
20200408121029 61 201 9.0 16.0 0.00 0.07 0.00 66 1011.7
20200408120527 60 194 10.0 17.0 0.00 0.07 0.00 67 1011.7
20200408120027 60 208 10.0 20.0 0.00 0.07 0.00 68 1011.7
20200408115526 60 212 8.0 13.0 0.00 0.07 0.07 68 1011.8
20200408115026 60 217 16.0 22.0 0.00 0.07 0.07 68 1011.8
20200408114527 60 230 8.0 16.0 0.00 0.07 0.07 70 1011.8
20200408114029 60 178 8.0 15.0 0.00 0.07 0.07 71 1011.8
20200408113526 60 198 9.0 18.0 0.00 0.07 0.07 72 1011.7
20200408113027 60 222 10.0 17.0 0.00 0.07 0.07 71 1011.7
20200408112529 60 195 9.0 20.0 0.00 0.07 0.07 71 1011.7
20200408112027 60 216 10.0 20.0 0.00 0.07 0.07 71 1011.7
20200408111526 60 234 7.0 12.0 0.00 0.07 0.07 72 1011.7
20200408111027 61 221 8.0 18.0 0.00 0.07 0.07 72 1011.7
20200408110526 61 228 9.0 16.0 0.00 0.07 0.07 72 1011.7
20200408110027 61 233 9.0 15.0 0.00 0.07 0.07 72 1011.7
20200408105527 61 229 8.0 16.0 0.00 0.07 0.07 74 1011.9
20200408105026 61 240 5.0 10.0 0.00 0.07 0.07 74 1011.9
20200408104526 61 230 6.0 12.0 0.00 0.07 0.07 75 1011.9
20200408104026 60 227 6.0 12.0 0.00 0.07 0.07 74 1011.9
20200408103529 60 233 3.0 6.0 0.00 0.07 0.07 74 1011.9
20200408103027 60 234 4.0 7.0 0.00 0.07 0.07 74 1011.9
20200408102526 60 232 4.0 10.0 0.00 0.07 0.07 74 1011.9
20200408102026 60 229 3.0 8.0 0.00 0.07 0.07 73 1011.9
20200408101527 60 232 3.0 6.0 0.00 0.07 0.07 72 1011.9
20200408101026 60 233 5.0 10.0 0.00 0.07 0.07 72 1011.8
20200408100526 60 235 7.0 12.0 0.00 0.07 0.07 71 1011.8
20200408100026 60 228 8.0 12.0 0.00 0.07 0.07 70 1011.8
20200408095525 60 230 10.0 15.0 0.00 0.07 0.07 71 1011.8
20200408095026 60 227 7.0 12.0 0.00 0.07 0.07 74 1011.8
20200408094526 60 223 7.0 12.0 0.00 0.07 0.07 74 1011.7
20200408094026 60 225 6.0 9.0 0.00 0.07 0.07 74 1011.7
20200408093526 60 235 8.0 13.0 0.00 0.07 0.07 74 1011.6
20200408093026 60 225 7.0 14.0 0.00 0.07 0.07 75 1011.6
20200408092526 60 224 8.0 15.0 0.00 0.07 0.07 75 1011.5
20200408092027 60 232 9.0 14.0 0.00 0.07 0.07 76 1011.5
20200408091526 60 220 6.0 12.0 0.00 0.07 0.07 77 1011.6
20200408091026 60 231 6.0 12.0 0.00 0.07 0.07 77 1011.5
20200408090526 60 225 6.0 9.0 0.00 0.07 0.07 76 1011.5
20200408090028 60 220 7.0 10.0 0.00 0.07 0.07 76 1011.5
20200408085526 60 217 9.0 14.0 0.00 0.07 0.07 76 1011.5
20200408085026 60 220 7.0 12.0 0.00 0.07 0.07 77 1011.4
20200408084529 60 225 7.0 13.0 0.00 0.07 0.07 78 1011.4
20200408084026 60 220 7.0 12.0 0.00 0.07 0.07 78 1011.3
20200408083526 60 239 8.0 12.0 0.00 0.07 0.07 77 1011.2
20200408083028 60 225 6.0 12.0 0.00 0.07 0.07 78 1011.2
20200408082526 60 219 7.0 14.0 0.00 0.07 0.07 78 1011.2
20200408082026 60 228 8.0 14.0 0.00 0.07 0.07 77 1011.1
20200408081528 60 235 12.0 16.0 0.00 0.07 0.07 77 1011.1
20200408081026 60 232 7.0 15.0 0.00 0.07 0.07 78 1011.1
20200408080525 60 227 10.0 14.0 0.00 0.07 0.07 78 1011.1
20200408080027 60 223 9.0 15.0 0.00 0.07 0.07 79 1011.1
20200408075526 60 232 9.0 15.0 0.00 0.07 0.07 80 1011.1
20200408075026 60 226 10.0 15.0 0.00 0.07 0.07 80 1011.0
20200408074525 61 226 11.0 16.0 0.00 0.07 0.07 81 1010.9
20200408074026 61 236 8.0 14.0 0.00 0.07 0.07 81 1010.9
20200408073525 60 237 9.0 14.0 0.00 0.07 0.07 82 1010.9
20200408073028 60 224 5.0 10.0 0.00 0.07 0.07 83 1010.9
20200408072526 60 218 7.0 10.0 0.00 0.07 0.07 83 1010.8
20200408072027 60 221 5.0 9.0 0.00 0.07 0.07 83 1010.7
20200408071529 60 232 7.0 10.0 0.00 0.07 0.07 83 1010.7
20200408071026 60 228 5.0 9.0 0.00 0.07 0.07 83 1010.7
20200408070525 60 226 6.0 10.0 0.00 0.07 0.07 84 1010.7
20200408070026 60 220 7.0 12.0 0.00 0.07 0.07 83 1010.7
20200408065526 60 222 6.0 13.0 0.00 0.07 0.07 83 1010.6
20200408065026 60 216 6.0 13.0 0.00 0.07 0.07 83 1010.6
20200408064528 60 215 9.0 14.0 0.00 0.07 0.07 83 1010.5
20200408064025 60 213 9.0 13.0 0.00 0.07 0.07 83 1010.5
20200408063529 60 222 8.0 14.0 0.00 0.07 0.07 84 1010.4
20200408063025 60 228 7.0 14.0 0.00 0.07 0.07 85 1010.3
20200408062525 60 215 7.0 12.0 0.00 0.07 0.07 87 1010.2
20200408062025 60 226 5.0 14.0 0.00 0.07 0.07 89 1010.2
20200408061529 60 244 5.0 10.0 0.00 0.07 0.07 90 1010.1
20200408061026 60 231 7.0 14.0 0.00 0.07 0.07 90 1010.1
20200408060526 60 214 9.0 12.0 0.00 0.07 0.07 91 1010.0
20200408060025 60 229 5.0 10.0 0.00 0.07 0.07 92 1010.0
20200408055526 60 233 6.0 14.0 0.00 0.07 0.07 91 1010.0
20200408055026 61 218 8.0 17.0 0.00 0.07 0.07 89 1010.0
20200408054528 61 230 7.0 12.0 0.00 0.07 0.07 87 1010.0
20200408054025 61 231 6.0 13.0 0.00 0.07 0.07 87 1009.9